Alamo, Nevada Weather observations

Data are for observation ending at time listed.
 Day   Time    Ave.   Ave.  Ave.  Vector   Max.   Stn.    Total    Solar   Ave.  
  of    of     Air    Rel.  Wind   Wind    Wind   Baro.  Precip.   Rad.    Soil  
Year   Day     Temp.  Hum.  Speed  Dir.    Gust   Pres.                    Temp. 
2016   (PST)    F      %     mph   deg.    mph     mb.     in.     W/m2     F   
------------------------------------------------------------------------------
  38   22:00   42.7    50    1.3   282      3.6   912.6    0.00       0    42.5
  38   22:10   41.8    52    2.3   288      3.9   912.6    0.00       0    42.3
  38   22:20   42.7    50    2.1   352      6.1   912.5    0.00       0    42.1
  38   22:30   42.6    50    2.2    13      6.1   912.7    0.00       0    41.9
  38   22:40   42.7    50    2.7   344      7.1   912.8    0.00       0    41.7
  38   22:50   43.9    47    4.1   319     10.2   912.8    0.00       0    41.6
  38   23:00   43.6    48    2.2   322      5.6   912.9    0.00       0    41.5
  38   23:10   43.3    48    3.5   344      6.5   912.8    0.00       0    41.3
  38   23:20   44.2    46    5.2   346     10.4   912.9    0.00       0    41.2
  38   23:30   44.4    46    4.7   330     10.9   912.9    0.00       0    41.1
  38   23:40   43.4    48    4.0   343      6.7   912.9    0.00       0    41.0
  38   23:50   42.4    50    1.4   352      3.9   913.0    0.00       0    40.9
  39    0:00   40.9    54    1.5   358      5.9   913.1    0.00       0    40.8
  39    0:10   41.9    51    4.0   352      8.3   913.1    0.00       0    40.7
  39    0:20   41.7    52    4.0   353      6.9   913.1    0.00       0    40.5
  39    0:30   41.5    52    4.3   340      9.1   913.1    0.00       0    40.4
  39    0:40   41.8    51    5.0   336      8.6   913.1    0.00       0    40.3
  39    0:50   41.9    51    4.0   346      8.6   912.9    0.00       0    40.2
  39    1:00   41.3    52    2.8   346      8.8   912.9    0.00       0    40.1
  39    1:10   42.1    50    4.9   344      8.5   913.0    0.00       0    39.9
  39    1:20   42.3    49    6.4   350     11.6   912.9    0.00       0    39.9
  39    1:30   42.0    50    3.8     8      7.5   913.0    0.00       0    39.8
  39    1:40   41.1    52    3.4     9      7.3   913.1    0.00       0    39.7
  39    1:50   41.6    50    3.9    22      9.0   913.1    0.00       0    39.6
  39    2:00   41.6    51    3.4    30      6.7   913.0    0.00       0    39.5
  39    2:10   41.4    51    3.0   358      6.4   913.0    0.00       0    39.5
  39    2:20   40.3    53    3.1   290      6.2   913.0    0.00       0    39.4
  39    2:30   40.9    52    4.2   319     12.7   912.9    0.00       0    39.3
  39    2:40   41.4    50    4.7   320     10.7   912.9    0.00       0    39.2
  39    2:50   42.3    48    4.4   329     10.7   912.9    0.00       0    39.1
  39    3:00   41.2    51    2.8   310      6.1   912.9    0.00       0    39.1
  39    3:10   40.7    52    2.6   335      5.8   912.9    0.00       0    39.0
  39    3:20   41.0    51    4.1   357      9.2   912.8    0.00       0    38.9
  39    3:30   41.4    50    2.7     8      5.7   912.9    0.00       0    38.8
  39    3:40   41.1    51    2.5   314      7.6   912.8    0.00       0    38.7
  39    3:50   41.9    48    5.2   331     10.5   912.8    0.00       0    38.7
  39    4:00   41.6    49    4.3   351      7.5   912.9    0.00       0    38.6
  39    4:10   40.9    51    3.5   358      6.5   913.0    0.00       0    38.5
  39    4:20   41.2    50    4.2   351      6.3   913.1    0.00       0    38.5
  39    4:30   41.0    51    4.5   343      8.8   913.1    0.00       0    38.4
  39    4:40   41.6    49    6.2   337     12.1   913.1    0.00       0    38.4
  39    4:50   41.4    50    4.9   318     10.4   913.1    0.00       0    38.3
  39    5:00   41.1    50    4.0   336      8.7   913.3    0.00       0    38.3
  39    5:10   41.7    48    5.4   344      9.9   913.3    0.00       0    38.2
  39    5:20   41.4    49    4.8   346      9.9   913.4    0.00       0    38.2
  39    5:30   41.5    48    4.2   328     10.2   913.4    0.00       0    38.1
  39    5:40   40.8    50    4.0   341      8.9   913.4    0.00       0    38.1
  39    5:50   40.4    52    4.3   346      7.4   913.5    0.00       0    38.0
  39    6:00   39.8    53    3.8     2      8.0   913.5    0.00       0    38.0
  39    6:10   40.5    50    5.3   343     10.1   913.6    0.00       0    37.9
  39    6:20   41.0    49    4.5   343      7.7   913.6    0.00       0    37.8
  39    6:30   40.6    50    4.7   342      9.6   913.7    0.00       0    37.8
  39    6:40   40.5    50    4.1   337      8.3   913.8    0.00       0    37.7
  39    6:50   40.5    50    4.8   343     10.1   913.8    0.00       0    37.7
  39    7:00   39.7    52    4.7   347      7.6   913.9    0.00       7    37.6
  39    7:10   39.5    53    4.0   355      7.0   913.9    0.00      13    37.6
  39    7:20   39.6    53    3.6   339      6.7   913.9    0.00      14    37.5
  39    7:30   40.5    51    3.6   340      8.6   913.8    0.00      15    37.5
  39    7:40   41.2    50    3.8   351      9.6   913.9    0.00      19    37.5
  39    7:50   42.4    47    4.8   345      9.6   913.9    0.00      28    37.5
  39    8:00   43.3    46    4.5   343      7.7   913.9    0.00      26    37.6
  39    8:10   44.0    45    5.2   347     10.5   913.8    0.00      27    37.6
  39    8:20   44.7    44    5.5   342     12.1   913.7    0.00      27    37.7
  39    8:30   45.7    41    6.5   336     12.4   913.7    0.00      32    37.8
  39    8:40   46.3    41    6.8   348     12.1   913.8    0.00      29    37.9
  39    8:50   47.0    40    7.1   353     12.5   913.7    0.00      27    38.0
  39    9:00   47.8    38    6.7   340     12.0   913.6    0.00      27    38.1
  39    9:10   48.5    37    5.6   329     10.5   913.6    0.00      27    38.4
  39    9:20   48.9    38    6.8   350     15.9   913.6    0.00      27    38.6
  39    9:30   48.7    38    7.5   358     13.8   913.7    0.00      58    38.7
  39    9:40   49.4    37    5.5   353     15.1   913.7    0.00      56    38.9
  39    9:50   49.5    37    7.3   359     13.1   913.8    0.00      36    39.0
  39   10:00   50.0    37    7.1     6     12.5   913.7    0.00      33    39.2
  39   10:10   50.7    36    7.8     9     14.3   913.6    0.00      36    39.4
  39   10:20   51.6    35    7.9     3     13.5   913.5    0.00      33    39.6
  39   10:30   52.7    33    8.2   351     18.0   913.4    0.00      34    39.8
  39   10:40   53.2    32    9.2   343     18.0   913.2    0.00      41    40.2
  39   10:50   53.4    32    9.4   351     16.0   913.1    0.00      37    40.6
  39   11:00   54.0    32    8.4   351     17.3   912.9    0.00      38    41.2
  39   11:10   55.1    31    7.4   348     15.0   912.8    0.00      51    42.1
  39   11:20   55.7    29    8.6   331     16.7   912.6    0.00      42    43.1
  39   11:30   55.9    29    8.8   334     15.1   912.3    0.00      41    44.0
  39   11:40   56.7    28    8.3   334     15.8   912.0    0.00      42    44.5
  39   11:50   58.0    28    7.4   327     14.7   911.8    0.00     215    44.9
  39   12:00   59.1    27    7.5   325     14.5   911.7    0.00      78    45.3
  39   12:10   59.2    27    7.2   331     15.9   911.5    0.00     272    45.6
  39   12:20   59.8    26    8.3   328     14.7   911.3    0.00     692    46.4
  39   12:30   59.6    27    7.4   336     14.0   911.1    0.00     696    47.5
  39   12:40   61.0    26    7.6   317     15.8   910.8    0.00     696    48.7
  39   12:50   60.7    26    7.7   333     13.9   910.6    0.00     689    50.0
  39   13:00   61.6    26    7.2   336     14.0   910.4    0.00     680    51.1
  39   13:10   61.2    26    8.6   340     15.4   910.3    0.00     672    52.1
  39   13:20   61.4    27    7.9   343     13.8   910.2    0.00     660    53.0
  39   13:30   62.0    27    7.6   338     14.4   910.0    0.00     648    53.7
  39   13:40   62.5    26    7.8   330     13.7   910.0    0.00     635    54.4
  39   13:50   63.2    26    7.2   323     12.7   910.0    0.00     620    55.0
  39   14:00   63.6    25    8.7   318     18.7   910.0    0.00     602    55.7
  39   14:10   63.4    25    8.4   321     16.0   909.9    0.00     582    56.3
  39   14:20   63.4    25    7.4   328     15.6   909.9    0.00     561    56.8
  39   14:30   63.3    25    8.6   327     16.3   909.8    0.00     537    57.2
  39   14:40   63.1    26    8.7   338     15.1   909.9    0.00     512    57.6
  39   14:50   62.9    26    8.2   339     16.7   909.9    0.00     487    57.8
  39   15:00   63.2    26    8.2   334     13.0   909.9    0.00     459    58.0
  39   15:10   63.4    25    7.4   335     14.4   909.9    0.00     431    58.2
  39   15:20   63.2    26    7.3   340     11.8   909.9    0.00     401    58.2
  39   15:30   63.1    27    7.0   329     14.6   909.9    0.00     371    58.3
  39   15:40   63.2    26    6.0   332     11.8   909.9    0.00     341    58.3
  39   15:50   63.1    26    6.2   339     14.0   910.0    0.00     309    58.3
  39   16:00   62.6    28    5.8   337     11.9   909.9    0.00     276    58.1
  39   16:10   62.3    28    6.0   330     11.8   909.9    0.00     244    58.0
  39   16:20   61.7    28    6.2   343     11.5   909.9    0.00     210    57.7
  39   16:30   61.4    28    5.6   347     11.5   909.9    0.00     178    57.2
  39   16:40   60.8    28    5.6   332     14.0   910.0    0.00     146    56.5
  39   16:50   59.9    28    5.7   331     13.2   910.0    0.00      66    55.9
  39   17:00   59.3    29    5.1   327     10.2   910.0    0.00      13    55.3
  39   17:10   58.5    29    4.5   320     11.3   910.1    0.00       8    54.7
  39   17:20   57.4    31    4.3   335      8.4   910.1    0.00       5    54.1
  39   17:30   57.0    31    4.6   352      9.0   910.2    0.00       0    53.6
  39   17:40   56.4    32    3.6   354      7.9   910.3    0.00       0    53.1
  39   17:50   55.5    34    2.7   347      7.2   910.4    0.00       0    52.6
  39   18:00   54.3    35    3.7   350      6.3   910.5    0.00       0    52.1
  39   18:10   53.9    36    3.9   356      8.6   910.6    0.00       0    51.7
  39   18:20   53.2    38    4.1     0      8.8   910.6    0.00       0    51.3
  39   18:30   52.9    38    3.6     0      7.1   910.6    0.00       0    50.9
  39   18:40   52.2    40    2.5     5      4.2   910.6    0.00       0    50.5
  39   18:50   50.2    44    2.2    17      4.2   910.6    0.00       0    50.2
  39   19:00   50.5    42    4.0   358      6.2   910.5    0.00       0    49.9
  39   19:10   52.1    38    3.1     3      5.8   910.5    0.00       0    49.5
  39   19:20   51.1    41    2.9    19      4.7   910.6    0.00       0    49.2
  39   19:30   50.1    43    3.2    20      5.0   910.7    0.00       0    48.9
  39   19:40   49.3    44    2.8    16      5.6   910.7    0.00       0    48.6
  39   19:50   48.8    45    2.2    29      5.3   910.7    0.00       0    48.4
  39   20:00   47.6    47    1.8    28      3.3   910.8    0.00       0    48.1
  39   20:10   47.3    48    3.0    13      5.3   910.8    0.00       0    47.9
  39   20:20   47.4    48    3.1     9      6.8   910.9    0.00       0    47.6
  39   20:30   47.3    48    2.1   356      4.4   911.0    0.00       0    47.3
  39   20:40   47.2    48    1.7   326      3.2   911.1    0.00       0    47.1
  39   20:50   45.2    52    1.4    14      2.4   911.1    0.00       0    46.8
  39   21:00   44.2    54    1.5    16      3.7   911.2    0.00       0    46.5
  39   21:10   44.1    55    2.5    17      3.7   911.2    0.00       0    46.3
  39   21:20   43.2    57    2.8     8      4.5   911.3    0.00       0    46.1
  39   21:30   44.0    56    3.8     8      5.7   911.3    0.00       0    45.8
  39   21:40   44.0    56    2.6     8      4.2   911.4    0.00       0    45.6
  39   21:50   43.5    57    1.8   356      4.5   911.4    0.00       0    45.4

Return to Alamo, Nevada graphs page.


Western Regional Climate Center,wrcc@dri.edu